createdAt,value
2019-01-24T00:00:40.375Z,17.9
2019-01-24T00:01:30.154Z,17.9
2019-01-24T00:02:20.497Z,17.9
2019-01-24T00:03:10.279Z,17.9
2019-01-24T00:04:00.339Z,17.9
2019-01-24T00:04:50.654Z,17.9
2019-01-24T00:05:40.729Z,17.9
2019-01-24T00:06:30.769Z,17.9
2019-01-24T00:07:20.294Z,17.9
2019-01-24T00:08:10.611Z,17.9
2019-01-24T00:09:00.428Z,17.9
2019-01-24T00:09:51.019Z,17.9
2019-01-24T00:10:41.068Z,17.9
2019-01-24T00:11:30.851Z,17.9
2019-01-24T00:12:21.181Z,17.9
2019-01-24T00:13:10.976Z,17.9
2019-01-24T00:14:01.024Z,17.9
2019-01-24T00:14:51.364Z,17.9
2019-01-24T00:15:41.149Z,17.9
2019-01-24T00:16:30.662Z,17.9
2019-01-24T00:17:21.258Z,17.9
2019-01-24T00:18:11.636Z,17.9
2019-01-24T00:19:01.651Z,17.9
2019-01-24T00:19:51.721Z,17.9
2019-01-24T00:20:41.514Z,17.9
2019-01-24T00:21:31.546Z,17.9
2019-01-24T00:22:21.613Z,17.9
2019-01-24T00:23:11.713Z,17.9
2019-01-24T00:24:01.965Z,17.9
2019-01-24T00:24:51.485Z,17.9
2019-01-24T00:25:41.863Z,17.8
2019-01-24T00:26:31.040Z,17.9
2019-01-24T00:27:21.963Z,17.8
2019-01-24T00:28:12.268Z,17.9
2019-01-24T00:29:02.333Z,17.9
2019-01-24T00:29:52.365Z,17.8
2019-01-24T00:30:42.177Z,17.8
2019-01-24T00:31:32.505Z,17.9
2019-01-24T00:32:22.292Z,17.8
2019-01-24T00:33:12.340Z,17.8
2019-01-24T00:34:02.755Z,17.9
2019-01-24T00:34:51.892Z,17.9
2019-01-24T00:35:42.542Z,17.8
2019-01-24T00:36:32.605Z,17.8
2019-01-24T00:37:22.352Z,17.9
2019-01-24T00:38:12.709Z,17.8
2019-01-24T00:39:03.025Z,17.9
2019-01-24T00:39:53.081Z,17.9
2019-01-24T00:40:42.571Z,17.8
2019-01-24T00:41:32.897Z,17.8
2019-01-24T00:42:23.299Z,17.8
2019-01-24T00:43:12.759Z,17.9
2019-01-24T00:44:03.079Z,17.8
2019-01-24T00:44:53.429Z,17.8
2019-01-24T00:45:43.194Z,17.8
2019-01-24T00:46:33.254Z,17.8
2019-01-24T00:47:23.097Z,17.8
2019-01-24T00:48:13.164Z,17.8
2019-01-24T00:49:02.954Z,17.8
2019-01-24T00:49:53.469Z,17.8
2019-01-24T00:50:43.081Z,17.8
2019-01-24T00:51:33.397Z,17.8
2019-01-24T00:52:23.166Z,17.8
2019-01-24T00:53:13.508Z,17.8
2019-01-24T00:54:03.324Z,17.8
2019-01-24T00:54:53.609Z,17.8
2019-01-24T00:55:43.448Z,17.8
2019-01-24T00:56:32.911Z,17.8
2019-01-24T00:57:23.511Z,17.8
2019-01-24T00:58:13.586Z,17.8
2019-01-24T00:59:03.399Z,17.8
2019-01-24T00:59:54.011Z,17.8
2019-01-24T01:00:44.031Z,17.8
2019-01-24T01:01:34.073Z,17.8
2019-01-24T01:02:24.143Z,17.8
2019-01-24T01:03:14.193Z,17.8
2019-01-24T01:04:04.253Z,17.8
2019-01-24T01:04:54.310Z,17.8
2019-01-24T01:05:44.099Z,17.8
2019-01-24T01:06:34.418Z,17.8
2019-01-24T01:07:24.490Z,17.8
2019-01-24T01:08:15.058Z,17.8
2019-01-24T01:09:05.093Z,17.8
2019-01-24T01:09:54.429Z,17.8
2019-01-24T01:10:44.922Z,17.8
2019-01-24T01:11:34.775Z,17.8
2019-01-24T01:12:25.316Z,17.8
2019-01-24T01:13:14.810Z,17.8
2019-01-24T01:14:05.150Z,17.8
2019-01-24T01:14:54.732Z,17.8
2019-01-24T01:15:44.805Z,17.8
2019-01-24T01:16:35.128Z,17.8
2019-01-24T01:17:25.385Z,17.8
2019-01-24T01:18:15.467Z,17.8
2019-01-24T01:19:05.496Z,17.8
2019-01-24T01:19:55.829Z,17.8
2019-01-24T01:20:45.599Z,17.8
2019-01-24T01:21:35.672Z,17.8
2019-01-24T01:22:25.722Z,17.8
2019-01-24T01:23:15.512Z,17.8
2019-01-24T01:24:06.119Z,17.8
2019-01-24T01:24:55.927Z,17.8
2019-01-24T01:25:46.232Z,17.8
2019-01-24T01:26:35.772Z,17.8
2019-01-24T01:27:26.347Z,17.8
2019-01-24T01:28:15.633Z,17.8
2019-01-24T01:29:06.183Z,17.8
2019-01-24T01:29:56.516Z,17.8
2019-01-24T01:30:46.286Z,17.8
2019-01-24T01:31:36.341Z,17.8
2019-01-24T01:32:26.405Z,17.8
2019-01-24T01:33:16.743Z,17.8
2019-01-24T01:34:05.970Z,17.8
2019-01-24T01:34:56.586Z,17.8
2019-01-24T01:35:46.914Z,17.8
2019-01-24T01:36:36.696Z,17.8
2019-01-24T01:37:26.747Z,17.8
2019-01-24T01:38:18.455Z,17.8
2019-01-24T01:39:07.137Z,17.8
2019-01-24T01:39:56.920Z,17.8
2019-01-24T01:40:47.293Z,17.8
2019-01-24T01:41:36.493Z,17.8
2019-01-24T01:42:26.809Z,17.8
2019-01-24T01:43:17.163Z,17.8
2019-01-24T01:44:07.485Z,17.8
2019-01-24T01:44:56.725Z,17.8
2019-01-24T01:45:47.633Z,17.8
2019-01-24T01:46:37.378Z,17.8
2019-01-24T01:47:27.166Z,17.8
2019-01-24T01:48:17.777Z,17.8
2019-01-24T01:49:07.278Z,17.8
2019-01-24T01:49:57.887Z,17.8
2019-01-24T01:50:48.003Z,17.8
2019-01-24T01:51:37.453Z,17.8
2019-01-24T01:52:28.062Z,17.8
2019-01-24T01:53:18.140Z,17.8
2019-01-24T01:54:07.632Z,17.8
2019-01-24T01:54:57.964Z,17.8
2019-01-24T01:55:48.059Z,17.8
2019-01-24T01:56:38.397Z,17.8
2019-01-24T01:57:28.122Z,17.7
2019-01-24T01:58:18.462Z,17.7
2019-01-24T01:59:08.232Z,17.8
2019-01-24T01:59:58.031Z,17.7
2019-01-24T02:00:48.639Z,17.7
2019-01-24T02:01:38.726Z,17.7
2019-01-24T02:02:28.754Z,17.7
2019-01-24T02:03:18.807Z,17.8
2019-01-24T02:04:08.871Z,17.7
2019-01-24T02:04:58.921Z,17.8
2019-01-24T02:05:48.719Z,17.7
2019-01-24T02:06:38.861Z,17.8
2019-01-24T02:07:28.824Z,17.7
2019-01-24T02:08:18.607Z,17.7
2019-01-24T02:09:08.936Z,17.7
2019-01-24T02:09:58.994Z,17.7
2019-01-24T02:10:49.336Z,17.7
2019-01-24T02:11:39.186Z,17.7
2019-01-24T02:12:29.441Z,17.7
2019-01-24T02:13:19.506Z,17.7
2019-01-24T02:14:09.041Z,17.7
2019-01-24T02:14:59.621Z,17.7
2019-01-24T02:15:49.671Z,17.7
2019-01-24T02:16:39.766Z,17.7
2019-01-24T02:17:29.518Z,17.7
2019-01-24T02:18:19.843Z,17.7
2019-01-24T02:19:09.676Z,17.7
2019-01-24T02:19:59.690Z,17.7
2019-01-24T02:20:50.023Z,17.7
2019-01-24T02:21:39.810Z,17.7
2019-01-24T02:22:30.136Z,17.7
2019-01-24T02:23:19.649Z,17.7
2019-01-24T02:24:10.010Z,17.7
2019-01-24T02:25:00.318Z,17.7
2019-01-24T02:25:50.360Z,17.7
2019-01-24T02:26:40.150Z,17.7
2019-01-24T02:27:30.218Z,17.7
2019-01-24T02:28:20.540Z,17.7
2019-01-24T02:29:10.317Z,17.7
2019-01-24T02:30:00.886Z,17.7
2019-01-24T02:30:50.720Z,17.7
2019-01-24T02:31:40.504Z,17.7
2019-01-24T02:32:30.573Z,17.7
2019-01-24T02:33:20.335Z,17.7
2019-01-24T02:34:10.395Z,17.7
2019-01-24T02:35:01.060Z,17.7
2019-01-24T02:35:50.550Z,17.7
2019-01-24T02:36:40.864Z,17.6
2019-01-24T02:37:30.890Z,17.7
2019-01-24T02:38:20.950Z,17.7
2019-01-24T02:39:11.339Z,17.7
2019-01-24T02:40:01.357Z,17.7
2019-01-24T02:40:50.587Z,17.7
2019-01-24T02:41:41.465Z,17.7
2019-01-24T02:42:30.979Z,17.7
2019-01-24T02:43:21.059Z,17.6
2019-01-24T02:44:11.647Z,17.7
2019-01-24T02:45:01.586Z,17.6
2019-01-24T02:45:51.799Z,17.7
2019-01-24T02:46:41.285Z,17.7
2019-01-24T02:47:31.591Z,17.6
2019-01-24T02:48:21.943Z,17.6
2019-01-24T02:49:11.769Z,17.7
2019-01-24T02:50:01.963Z,17.6
2019-01-24T02:50:51.858Z,17.6
2019-01-24T02:51:41.617Z,17.6
2019-01-24T02:52:31.383Z,17.6
2019-01-24T02:53:21.719Z,17.6
2019-01-24T02:54:11.814Z,17.6
2019-01-24T02:55:02.245Z,17.6
2019-01-24T02:55:52.146Z,17.6
2019-01-24T02:56:42.213Z,17.6
2019-01-24T02:57:32.610Z,17.6
2019-01-24T02:58:22.616Z,17.6
2019-01-24T02:59:12.665Z,17.6
2019-01-24T03:00:02.804Z,17.6
2019-01-24T03:00:52.241Z,17.6
2019-01-24T03:01:42.560Z,17.6
2019-01-24T03:02:33.180Z,17.6
2019-01-24T03:03:22.993Z,17.6
2019-01-24T03:04:13.015Z,17.6
2019-01-24T03:05:02.805Z,17.6
2019-01-24T03:08:35.614Z,17.6
2019-01-24T03:09:25.622Z,17.6
2019-01-24T03:10:15.632Z,17.6
2019-01-24T03:11:05.975Z,17.6
2019-01-24T03:11:56.013Z,17.6
2019-01-24T03:12:46.083Z,17.6
2019-01-24T03:13:35.848Z,17.6
2019-01-24T03:14:26.250Z,17.6
2019-01-24T03:15:15.727Z,17.6
2019-01-24T03:16:05.762Z,17.6
2019-01-24T03:16:56.378Z,17.6
2019-01-24T03:17:46.431Z,17.6
2019-01-24T03:18:36.227Z,17.6
2019-01-24T03:19:26.314Z,17.6
2019-01-24T03:20:16.062Z,17.6
2019-01-24T03:21:06.677Z,17.6
2019-01-24T03:21:56.707Z,17.6
2019-01-24T03:22:46.499Z,17.6
2019-01-24T03:23:36.551Z,17.6
2019-01-24T03:24:26.898Z,17.6
2019-01-24T03:25:16.395Z,17.6
2019-01-24T03:26:07.005Z,17.6
2019-01-24T03:26:56.787Z,17.6
2019-01-24T03:27:47.147Z,17.6
2019-01-24T03:28:36.921Z,17.6
2019-01-24T03:29:26.951Z,17.6
2019-01-24T03:30:17.396Z,17.6
2019-01-24T03:31:06.857Z,17.6
2019-01-24T03:31:57.495Z,17.6
2019-01-24T03:32:47.322Z,17.6
2019-01-24T03:33:37.334Z,17.6
2019-01-24T03:34:27.614Z,17.6
2019-01-24T03:35:17.701Z,17.6
2019-01-24T03:36:07.697Z,17.6
2019-01-24T03:36:57.463Z,17.6
2019-01-24T03:37:47.260Z,17.6
2019-01-24T03:38:37.316Z,17.6
2019-01-24T03:39:27.943Z,17.6
2019-01-24T03:40:17.491Z,17.6
2019-01-24T03:41:08.088Z,17.6
2019-01-24T03:41:58.087Z,17.6
2019-01-24T03:42:48.168Z,17.6
2019-01-24T03:43:38.194Z,17.6
2019-01-24T03:44:27.998Z,17.6
2019-01-24T03:45:18.353Z,17.6
2019-01-24T03:46:08.377Z,17.6
2019-01-24T03:46:58.474Z,17.6
2019-01-24T03:47:48.525Z,17.6
2019-01-24T03:48:38.549Z,17.6
2019-01-24T03:49:28.050Z,17.6
2019-01-24T03:50:18.668Z,17.6
2019-01-24T03:51:08.497Z,17.6
2019-01-24T03:51:58.774Z,17.6
2019-01-24T03:52:48.877Z,17.6
2019-01-24T03:53:38.912Z,17.6
2019-01-24T03:54:29.017Z,17.6
2019-01-24T03:55:18.459Z,17.6
2019-01-24T03:56:08.766Z,17.6
2019-01-24T03:56:58.571Z,17.6
2019-01-24T03:57:48.958Z,17.6
2019-01-24T03:58:39.227Z,17.6
2019-01-24T03:59:29.340Z,17.6
2019-01-24T04:00:19.109Z,17.6
2019-01-24T04:01:09.464Z,17.6
2019-01-24T04:01:59.461Z,17.6
2019-01-24T04:02:48.981Z,17.6
2019-01-24T04:03:39.579Z,17.6
2019-01-24T04:04:29.381Z,17.6
2019-01-24T04:05:19.708Z,17.6
2019-01-24T04:06:09.467Z,17.5
2019-01-24T04:06:59.608Z,17.6
2019-01-24T04:07:49.363Z,17.5
2019-01-24T04:08:39.392Z,17.6
2019-01-24T04:09:29.721Z,17.5
2019-01-24T04:10:20.063Z,17.5
2019-01-24T04:11:09.254Z,17.6
2019-01-24T04:12:00.172Z,17.5
2019-01-24T04:12:50.211Z,17.5
2019-01-24T04:13:39.718Z,17.5
2019-01-24T04:14:30.038Z,17.5
2019-01-24T04:15:20.466Z,17.5
2019-01-24T04:16:10.486Z,17.5
2019-01-24T04:17:00.506Z,17.5
2019-01-24T04:17:50.596Z,17.5
2019-01-24T04:18:40.068Z,17.5
2019-01-24T04:19:30.473Z,17.5
2019-01-24T04:20:20.478Z,17.5
2019-01-24T04:21:10.502Z,17.5
2019-01-24T04:22:00.598Z,17.5
2019-01-24T04:22:50.937Z,17.5
2019-01-24T04:23:40.677Z,17.5
2019-01-24T04:24:30.727Z,17.5
2019-01-24T04:25:21.352Z,17.5
2019-01-24T04:26:10.577Z,17.5
2019-01-24T04:27:00.918Z,17.5
2019-01-24T04:27:51.021Z,17.5
2019-01-24T04:28:40.783Z,17.5
2019-01-24T04:29:31.108Z,17.5
2019-01-24T04:30:21.178Z,17.5
2019-01-24T04:31:11.463Z,17.5
2019-01-24T04:32:01.555Z,17.5
2019-01-24T04:32:51.609Z,17.5
2019-01-24T04:33:41.366Z,17.5
2019-01-24T04:34:31.699Z,17.5
2019-01-24T04:35:24.574Z,17.5
2019-01-24T04:36:11.831Z,17.5
2019-01-24T04:37:01.400Z,17.5
2019-01-24T04:37:51.699Z,17.5
2019-01-24T04:38:41.992Z,17.5
2019-01-24T04:39:32.054Z,17.5
2019-01-24T04:40:21.839Z,17.5
2019-01-24T04:41:11.629Z,17.5
2019-01-24T04:42:02.222Z,17.5
2019-01-24T04:42:52.029Z,17.5
2019-01-24T04:43:42.081Z,17.4
2019-01-24T04:44:32.109Z,17.5
2019-01-24T04:45:22.495Z,17.5
2019-01-24T04:46:11.961Z,17.5
2019-01-24T04:47:02.566Z,17.5
2019-01-24T04:47:51.663Z,17.5
2019-01-24T04:48:42.433Z,17.5
2019-01-24T04:49:31.726Z,17.4
2019-01-24T04:50:21.879Z,17.5
2019-01-24T04:51:12.126Z,17.5
2019-01-24T04:52:02.187Z,17.5
2019-01-24T04:52:51.958Z,17.5
2019-01-24T04:53:42.553Z,17.4
2019-01-24T04:54:32.328Z,17.5
2019-01-24T04:55:21.923Z,17.4
2019-01-24T04:56:12.823Z,17.4
2019-01-24T04:57:02.493Z,17.4
2019-01-24T04:57:52.761Z,17.4
2019-01-24T04:58:42.913Z,17.4
2019-01-24T04:59:32.524Z,17.4
2019-01-24T05:00:22.740Z,17.4
2019-01-24T05:01:12.006Z,17.4
2019-01-24T05:02:02.880Z,17.4
2019-01-24T05:02:52.960Z,17.4
2019-01-24T05:03:42.943Z,17.4
2019-01-24T05:04:32.760Z,17.4
2019-01-24T05:05:31.185Z,17.4
2019-01-24T05:06:13.525Z,17.4
2019-01-24T05:07:03.562Z,17.4
2019-01-24T05:07:53.284Z,17.4
2019-01-24T05:08:43.369Z,17.4
2019-01-24T05:09:33.375Z,17.4
2019-01-24T05:10:23.806Z,17.4
2019-01-24T05:11:13.215Z,17.4
2019-01-24T05:12:03.544Z,17.4
2019-01-24T05:12:54.395Z,17.4
2019-01-24T05:13:43.917Z,17.4
2019-01-24T05:14:34.457Z,17.4
2019-01-24T05:15:23.989Z,17.4
2019-01-24T05:16:14.320Z,17.4
2019-01-24T05:17:03.803Z,17.4
2019-01-24T05:17:54.738Z,17.4
2019-01-24T05:18:44.461Z,17.4
2019-01-24T05:19:34.257Z,17.4
2019-01-24T05:20:24.635Z,17.4
2019-01-24T05:21:14.653Z,17.4
2019-01-24T05:22:04.979Z,17.4
2019-01-24T05:22:54.806Z,17.4
2019-01-24T05:23:45.151Z,17.4
2019-01-24T05:24:35.138Z,17.4
2019-01-24T05:25:25.234Z,17.4
2019-01-24T05:26:15.031Z,17.4
2019-01-24T05:27:04.771Z,17.4
2019-01-24T05:27:55.178Z,17.4
2019-01-24T05:28:45.162Z,17.4
2019-01-24T05:29:34.936Z,17.4
2019-01-24T05:30:25.334Z,17.4
2019-01-24T05:31:15.340Z,17.4
2019-01-24T05:32:05.673Z,17.4
2019-01-24T05:32:57.339Z,17.4
2019-01-24T05:33:45.514Z,17.4
2019-01-24T05:34:35.859Z,17.4
2019-01-24T05:35:25.645Z,17.4
2019-01-24T05:36:15.971Z,17.4
2019-01-24T05:37:05.474Z,17.4
2019-01-24T05:37:56.102Z,17.4
2019-01-24T05:38:46.131Z,17.4
2019-01-24T05:39:36.179Z,17.4
2019-01-24T05:40:25.978Z,17.4
2019-01-24T05:41:16.319Z,17.4
2019-01-24T05:42:05.843Z,17.4
2019-01-24T05:42:56.501Z,17.4
2019-01-24T05:43:46.503Z,17.4
2019-01-24T05:44:36.517Z,17.4
2019-01-24T05:45:26.603Z,17.4
2019-01-24T05:46:16.366Z,17.4
2019-01-24T05:47:06.733Z,17.4
2019-01-24T05:47:56.761Z,17.4
2019-01-24T05:48:46.243Z,17.4
2019-01-24T05:49:36.571Z,17.4
2019-01-24T05:50:28.178Z,17.4
2019-01-24T05:51:16.966Z,17.4
2019-01-24T05:52:07.048Z,17.4
2019-01-24T05:52:56.540Z,17.4
2019-01-24T05:53:47.198Z,17.4
2019-01-24T05:54:36.942Z,17.4
2019-01-24T05:55:26.979Z,17.4
2019-01-24T05:56:17.040Z,17.4
2019-01-24T05:57:07.098Z,17.4
2019-01-24T05:57:57.422Z,17.4
2019-01-24T05:58:47.487Z,17.4
2019-01-24T05:59:37.550Z,17.4
2019-01-24T06:00:27.060Z,17.4
2019-01-24T06:01:17.662Z,17.4
2019-01-24T06:02:07.721Z,17.4
2019-01-24T06:02:57.760Z,17.4
2019-01-24T06:03:47.827Z,17.4
2019-01-24T06:04:37.900Z,17.4
2019-01-24T06:06:35.639Z,17.4
2019-01-24T06:07:26.910Z,17.4
2019-01-24T06:08:15.488Z,17.4
2019-01-24T06:09:05.806Z,17.4
2019-01-24T06:09:55.859Z,17.4
2019-01-24T06:10:45.664Z,17.4
2019-01-24T06:11:35.687Z,17.4
2019-01-24T06:12:26.022Z,17.3
2019-01-24T06:13:15.859Z,17.4
2019-01-24T06:14:06.132Z,17.4
2019-01-24T06:14:55.967Z,17.3
2019-01-24T06:15:45.976Z,17.3
2019-01-24T06:16:36.040Z,17.4
2019-01-24T06:17:26.087Z,17.4
2019-01-24T06:18:16.162Z,17.4
2019-01-24T06:19:06.512Z,17.4
2019-01-24T06:19:56.582Z,17.3
2019-01-24T06:20:46.072Z,17.4
2019-01-24T06:21:36.669Z,17.4
2019-01-24T06:22:26.735Z,17.4
2019-01-24T06:23:16.647Z,17.4
2019-01-24T06:24:06.554Z,17.3
2019-01-24T06:24:56.881Z,17.3
2019-01-24T06:25:46.414Z,17.3
2019-01-24T06:26:37.001Z,17.3
2019-01-24T06:27:27.057Z,17.3
2019-01-24T06:28:16.866Z,17.3
2019-01-24T06:29:07.461Z,17.3
2019-01-24T06:29:57.237Z,17.3
2019-01-24T06:30:46.999Z,17.3
2019-01-24T06:31:37.063Z,17.3
2019-01-24T06:32:27.423Z,17.3
2019-01-24T06:33:17.182Z,17.3
2019-01-24T06:34:07.541Z,17.3
2019-01-24T06:34:57.311Z,17.3
2019-01-24T06:35:52.890Z,17.3
2019-01-24T06:36:37.711Z,17.3
2019-01-24T06:37:27.485Z,17.3
2019-01-24T06:38:17.507Z,17.3
2019-01-24T06:39:07.845Z,17.3
2019-01-24T06:39:57.660Z,17.3
2019-01-24T06:40:47.680Z,17.3
2019-01-24T06:41:37.495Z,17.3
2019-01-24T06:42:27.802Z,17.3
2019-01-24T06:43:17.595Z,17.3
2019-01-24T06:44:08.187Z,17.3
2019-01-24T06:44:58.242Z,17.3
2019-01-24T06:45:48.315Z,17.3
2019-01-24T06:46:37.837Z,17.3
2019-01-24T06:47:28.158Z,17.3
2019-01-24T06:48:17.947Z,17.3
2019-01-24T06:49:08.540Z,17.3
2019-01-24T06:49:58.372Z,17.3
2019-01-24T06:50:48.655Z,17.3
2019-01-24T06:51:38.707Z,17.3
2019-01-24T06:52:28.752Z,17.3
2019-01-24T06:53:18.262Z,17.3
2019-01-24T06:54:08.584Z,17.3
2019-01-24T06:54:58.917Z,17.3
2019-01-24T06:55:48.707Z,17.3
2019-01-24T06:56:38.212Z,17.3
2019-01-24T06:57:28.874Z,17.3
2019-01-24T06:58:19.165Z,17.3
2019-01-24T06:59:08.674Z,17.3
2019-01-24T06:59:58.999Z,17.3
2019-01-24T07:00:49.059Z,17.3
2019-01-24T07:01:39.121Z,17.3
2019-01-24T07:02:28.886Z,17.3
2019-01-24T07:03:19.244Z,17.3
2019-01-24T07:04:09.284Z,17.3
2019-01-24T07:06:35.541Z,17.3
2019-01-24T07:07:24.490Z,17.3
2019-01-24T07:08:15.666Z,17.3
2019-01-24T07:09:05.718Z,17.3
2019-01-24T07:09:55.511Z,17.3
2019-01-24T07:10:45.568Z,17.3
2019-01-24T07:11:35.331Z,17.3
2019-01-24T07:12:25.960Z,17.3
2019-01-24T07:13:16.006Z,17.3
2019-01-24T07:14:05.786Z,17.3
2019-01-24T07:14:55.848Z,17.3
2019-01-24T07:15:45.908Z,17.3
2019-01-24T07:16:35.715Z,17.3
2019-01-24T07:17:25.520Z,17.3
2019-01-24T07:18:16.338Z,17.3
2019-01-24T07:19:05.855Z,17.3
2019-01-24T07:19:56.207Z,17.3
2019-01-24T07:20:46.245Z,17.3
2019-01-24T07:21:36.293Z,17.3
2019-01-24T07:22:26.633Z,17.3
2019-01-24T07:23:16.402Z,17.3
2019-01-24T07:24:06.237Z,17.3
2019-01-24T07:24:56.815Z,17.3
2019-01-24T07:25:46.582Z,17.3
2019-01-24T07:26:36.640Z,17.3
2019-01-24T07:27:26.702Z,17.3
2019-01-24T07:28:16.505Z,17.3
2019-01-24T07:29:06.262Z,17.3
2019-01-24T07:29:56.870Z,17.3
2019-01-24T07:30:46.710Z,17.3
2019-01-24T07:31:37.020Z,17.3
2019-01-24T07:32:27.047Z,17.3
2019-01-24T07:33:16.829Z,17.3
2019-01-24T07:34:07.434Z,17.3
2019-01-24T07:34:56.662Z,17.3
2019-01-24T07:35:47.009Z,17.3
2019-01-24T07:36:37.337Z,17.3
2019-01-24T07:37:27.720Z,17.3
2019-01-24T07:38:17.444Z,17.3
2019-01-24T07:39:07.777Z,17.3
2019-01-24T07:39:57.829Z,17.3
2019-01-24T07:40:47.339Z,17.3
2019-01-24T07:41:37.666Z,17.3
2019-01-24T07:42:26.632Z,17.3
2019-01-24T07:43:18.869Z,17.3
2019-01-24T07:44:07.869Z,17.3
2019-01-24T07:44:57.634Z,17.3
2019-01-24T07:45:48.241Z,17.3
2019-01-24T07:46:38.033Z,17.3
2019-01-24T07:47:27.515Z,17.3
2019-01-24T07:48:18.136Z,17.3
2019-01-24T07:49:07.913Z,17.3
2019-01-24T07:49:57.971Z,17.3
2019-01-24T07:50:48.584Z,17.3
2019-01-24T07:51:38.074Z,17.3
2019-01-24T07:52:28.705Z,17.3
2019-01-24T07:53:18.206Z,17.2
2019-01-24T07:54:07.701Z,17.2
2019-01-24T07:54:58.880Z,17.2
2019-01-24T07:55:48.926Z,17.2
2019-01-24T07:56:38.733Z,17.2
2019-01-24T07:57:28.216Z,17.2
2019-01-24T07:58:18.928Z,17.2
2019-01-24T07:59:09.153Z,17.2
2019-01-24T07:59:59.218Z,17.2
2019-01-24T08:00:48.713Z,17.2
2019-01-24T08:01:39.045Z,17.2
2019-01-24T08:02:28.817Z,17.2
2019-01-24T08:03:18.625Z,17.2
2019-01-24T08:04:09.540Z,17.2
2019-01-24T08:04:59.275Z,17.2
2019-01-24T08:05:49.620Z,17.2
2019-01-24T08:06:39.113Z,17.2
2019-01-24T08:07:29.460Z,17.2
2019-01-24T08:08:18.955Z,17.2
2019-01-24T08:09:09.850Z,17.2
2019-01-24T08:09:59.670Z,17.2
2019-01-24T08:10:49.402Z,17.2
2019-01-24T08:11:39.464Z,17.2
2019-01-24T08:12:29.794Z,17.2
2019-01-24T08:13:19.856Z,17.2
2019-01-24T08:14:10.182Z,17.2
2019-01-24T08:14:59.975Z,17.2
2019-01-24T08:15:50.032Z,17.2
2019-01-24T08:16:40.407Z,17.2
2019-01-24T08:17:29.847Z,17.2
2019-01-24T08:18:19.939Z,17.2
2019-01-24T08:19:09.993Z,17.2
2019-01-24T08:19:59.754Z,17.2
2019-01-24T08:20:50.379Z,17.2
2019-01-24T08:21:40.414Z,17.2
2019-01-24T08:22:30.787Z,17.2
2019-01-24T08:23:20.824Z,17.2
2019-01-24T08:24:10.604Z,17.2
2019-01-24T08:25:00.736Z,17.2
2019-01-24T08:25:50.981Z,17.2
2019-01-24T08:26:41.049Z,17.2
2019-01-24T08:27:32.561Z,17.2
2019-01-24T08:28:20.889Z,17.2
2019-01-24T08:29:10.734Z,17.2
2019-01-24T08:30:00.461Z,17.2
2019-01-24T08:30:51.056Z,17.2
2019-01-24T08:31:40.834Z,17.2
2019-01-24T08:32:30.895Z,17.2
2019-01-24T08:33:21.511Z,17.2
2019-01-24T08:34:11.288Z,17.2
2019-01-24T08:35:01.627Z,17.2
2019-01-24T08:35:51.131Z,17.2
2019-01-24T08:36:41.736Z,17.1
2019-01-24T08:37:31.516Z,17.2
2019-01-24T08:38:21.297Z,17.2
2019-01-24T08:39:11.620Z,17.1
2019-01-24T08:40:01.148Z,17.2
2019-01-24T08:40:51.466Z,17.1
2019-01-24T08:41:41.797Z,17.1
2019-01-24T08:42:31.588Z,17.2
2019-01-24T08:43:21.637Z,17.2
2019-01-24T08:44:11.741Z,17.2
2019-01-24T08:45:02.045Z,17.2
2019-01-24T08:45:51.530Z,17.1
2019-01-24T08:46:41.885Z,17.1
2019-01-24T08:47:31.928Z,17.1
2019-01-24T08:48:22.267Z,17.1
2019-01-24T08:49:12.315Z,17.1
2019-01-24T08:50:02.395Z,17.1
2019-01-24T08:50:52.434Z,17.1
2019-01-24T08:51:42.528Z,17.1
2019-01-24T08:52:32.597Z,17.1
2019-01-24T08:53:22.942Z,17.1
2019-01-24T08:54:12.962Z,17.2
2019-01-24T08:55:02.525Z,17.1
2019-01-24T08:55:52.777Z,17.1
2019-01-24T08:56:42.832Z,17.1
2019-01-24T08:57:32.905Z,17.1
2019-01-24T08:58:22.959Z,17.1
2019-01-24T08:59:12.706Z,17.1
2019-01-24T09:00:02.957Z,17.1
2019-01-24T09:00:52.872Z,17.1
2019-01-24T09:01:43.182Z,17.1
2019-01-24T09:02:33.259Z,17.1
2019-01-24T09:03:23.281Z,17.1
2019-01-24T09:04:13.622Z,17.1
2019-01-24T09:05:03.409Z,17.1
2019-01-24T09:05:53.456Z,17.1
2019-01-24T09:06:43.027Z,17.1
2019-01-24T09:07:33.602Z,17.1
2019-01-24T09:08:23.356Z,17.1
2019-01-24T09:09:13.962Z,17.1
2019-01-24T09:10:03.874Z,17.1
2019-01-24T09:10:53.533Z,17.1
2019-01-24T09:11:43.861Z,17.1
2019-01-24T09:12:34.596Z,17.1
2019-01-24T09:13:23.693Z,17.1
2019-01-24T09:14:14.026Z,17.1
2019-01-24T09:15:04.038Z,17.1
2019-01-24T09:15:53.850Z,17.1
2019-01-24T09:16:44.196Z,17.1
2019-01-24T09:17:34.546Z,17.1
2019-01-24T09:18:24.613Z,17.1
2019-01-24T09:19:14.374Z,17.1
2019-01-24T09:20:04.263Z,17.1
2019-01-24T09:20:54.756Z,17.1
2019-01-24T09:21:44.835Z,17.1
2019-01-24T09:22:34.605Z,17.1
2019-01-24T09:23:24.935Z,17.1
2019-01-24T09:24:15.001Z,17.1
2019-01-24T09:25:05.081Z,17.1
2019-01-24T09:25:54.580Z,17.1
2019-01-24T09:26:44.933Z,17.1
2019-01-24T09:27:35.427Z,17.1
2019-01-24T09:28:24.982Z,17.1
2019-01-24T09:29:15.061Z,17.1
2019-01-24T09:30:04.662Z,17.1
2019-01-24T09:30:54.908Z,17.1
2019-01-24T09:31:44.948Z,17.1
2019-01-24T09:32:35.294Z,17.1
2019-01-24T09:33:25.112Z,17.1
2019-01-24T09:34:15.120Z,17.1
2019-01-24T09:35:05.512Z,17.1
2019-01-24T09:35:55.240Z,17.1
2019-01-24T09:36:45.619Z,17.1
2019-01-24T09:37:34.802Z,17.1
2019-01-24T09:38:25.967Z,17.1
2019-01-24T09:39:15.482Z,17.1
2019-01-24T09:40:05.804Z,17.1
2019-01-24T09:40:55.584Z,17.1
2019-01-24T09:41:46.238Z,17.1
2019-01-24T09:42:35.702Z,17.1
2019-01-24T09:43:25.264Z,17.1
2019-01-24T09:44:15.804Z,17.1
2019-01-24T09:45:05.323Z,17.1
2019-01-24T09:45:55.971Z,17.1
2019-01-24T09:46:46.538Z,17.1
2019-01-24T09:47:36.602Z,17.1
2019-01-24T09:48:25.629Z,17.1
2019-01-24T09:49:15.878Z,17.1
2019-01-24T09:50:06.477Z,17.1
2019-01-24T09:50:56.828Z,17.1
2019-01-24T09:51:46.114Z,17.1
2019-01-24T09:52:36.671Z,17.1
2019-01-24T09:53:26.995Z,17.1
2019-01-24T09:54:16.511Z,17.1
2019-01-24T09:55:07.478Z,17.1
2019-01-24T09:55:56.893Z,17.1
2019-01-24T09:56:46.955Z,17.1
2019-01-24T09:57:36.448Z,17.1
2019-01-24T09:58:27.073Z,17.1
2019-01-24T09:59:17.396Z,17.1
2019-01-24T10:00:07.180Z,17.1
2019-01-24T10:00:57.040Z,17.1
2019-01-24T10:01:47.022Z,17.1
2019-01-24T10:02:37.358Z,17.1
2019-01-24T10:03:27.413Z,17.1
2019-01-24T10:05:07.808Z,17.1
2019-01-24T10:07:34.574Z,17.1
2019-01-24T10:09:15.232Z,17.1
2019-01-24T10:10:04.855Z,17.1
2019-01-24T10:10:54.637Z,17.1
2019-01-24T10:12:34.972Z,17.1
2019-01-24T10:13:25.554Z,17.1
2019-01-24T10:14:15.605Z,17.1
2019-01-24T10:15:05.086Z,17.1
2019-01-24T10:15:55.154Z,17.1
2019-01-24T10:16:45.804Z,17.1
2019-01-24T10:17:37.194Z,17.1
2019-01-24T10:18:25.922Z,17.1
2019-01-24T10:19:15.636Z,17.1
2019-01-24T10:20:06.264Z,17.1
2019-01-24T10:20:55.488Z,17.1
2019-01-24T10:22:36.461Z,17.1
2019-01-24T10:25:06.218Z,17.1
2019-01-24T10:28:26.816Z,17.1
2019-01-24T10:55:14.533Z,16.9
2019-01-24T11:03:28.687Z,16.9
2019-01-24T11:05:09.074Z,16.9
2019-01-24T11:07:39.241Z,16.9
2019-01-24T11:08:28.746Z,16.9
2019-01-24T11:10:10.746Z,16.9
2019-01-24T11:11:49.806Z,16.9
2019-01-24T11:12:39.303Z,16.9
2019-01-24T11:14:19.456Z,16.9
2019-01-24T11:15:59.813Z,16.9
2019-01-24T11:16:49.391Z,16.9
2019-01-24T11:17:39.458Z,16.9
2019-01-24T11:18:28.966Z,16.9
2019-01-24T11:19:19.283Z,16.9
2019-01-24T11:20:09.900Z,16.9
2019-01-24T11:20:59.973Z,16.9
2019-01-24T11:21:50.209Z,16.9
2019-01-24T11:22:40.295Z,16.9
2019-01-24T11:23:30.612Z,16.9
2019-01-24T11:24:20.385Z,16.9
2019-01-24T11:25:10.499Z,16.9
2019-01-24T11:26:00.503Z,16.9
2019-01-24T11:26:50.599Z,16.9
2019-01-24T11:27:40.059Z,16.9
2019-01-24T11:28:31.400Z,16.9
2019-01-24T11:29:20.467Z,16.9
2019-01-24T11:30:10.509Z,16.9
2019-01-24T11:31:00.902Z,16.9
2019-01-24T11:31:50.662Z,16.9
2019-01-24T11:32:41.257Z,16.9
2019-01-24T11:33:31.304Z,16.9
2019-01-24T11:34:20.827Z,16.9
2019-01-24T11:35:11.435Z,16.9
2019-01-24T11:36:01.237Z,16.9
2019-01-24T11:36:57.972Z,16.9
2019-01-24T11:37:41.572Z,16.9
2019-01-24T11:38:31.636Z,16.9
2019-01-24T11:39:21.686Z,16.9
2019-01-24T11:40:11.479Z,16.9
2019-01-24T11:41:01.534Z,16.9
2019-01-24T11:41:51.909Z,16.9
2019-01-24T11:42:41.646Z,16.9
2019-01-24T11:43:31.991Z,16.9
2019-01-24T11:44:21.490Z,16.9
2019-01-24T11:45:11.539Z,16.9
2019-01-24T11:46:01.591Z,16.9
2019-01-24T11:46:51.931Z,16.9
2019-01-24T11:47:42.261Z,16.9
2019-01-24T11:48:32.103Z,16.9
2019-01-24T11:49:22.378Z,16.9
2019-01-24T11:50:12.431Z,16.9
2019-01-24T11:51:02.218Z,16.9
2019-01-24T11:51:52.268Z,16.9
2019-01-24T11:52:42.349Z,16.9
2019-01-24T11:53:31.820Z,16.9
2019-01-24T11:54:22.166Z,16.9
2019-01-24T11:55:12.280Z,16.9
2019-01-24T11:56:02.845Z,16.9
2019-01-24T11:56:52.651Z,16.9
2019-01-24T11:57:42.668Z,16.9
2019-01-24T11:58:32.742Z,16.9
2019-01-24T11:59:23.103Z,16.9
2019-01-24T12:00:12.857Z,16.9